createdAt,value
2019-06-10T00:00:59.993Z,46.05
2019-06-10T00:03:31.751Z,47.18
2019-06-10T00:06:04.095Z,46.29
2019-06-10T00:08:34.842Z,45.91
2019-06-10T00:11:07.469Z,46.74
2019-06-10T00:13:37.278Z,46.40
2019-06-10T00:16:08.082Z,46.51
2019-06-10T00:18:43.081Z,46.74
2019-06-10T00:21:11.419Z,47.04
2019-06-10T00:23:42.811Z,47.06
2019-06-10T00:26:13.295Z,47.11
2019-06-10T00:28:43.957Z,47.15
2019-06-10T00:31:14.819Z,46.76
2019-06-10T00:33:45.500Z,46.83
2019-06-10T00:36:17.143Z,47.02
2019-06-10T00:38:47.536Z,46.75
2019-06-10T00:41:18.520Z,47.25
2019-06-10T00:43:48.845Z,46.99
2019-06-10T00:46:21.195Z,46.81
2019-06-10T00:48:51.440Z,47.56
2019-06-10T00:51:22.508Z,47.24
2019-06-10T00:53:52.958Z,46.89
2019-06-10T00:56:24.138Z,47.05
2019-06-10T00:58:54.283Z,47.34
2019-06-10T01:01:25.310Z,47.83
2019-06-10T01:03:55.855Z,47.37
2019-06-10T01:06:26.164Z,47.70
2019-06-10T01:08:56.709Z,47.73
2019-06-10T01:11:30.861Z,47.54
2019-06-10T01:14:01.470Z,48.56
2019-06-10T01:16:32.476Z,47.64
2019-06-10T01:19:03.799Z,47.60
2019-06-10T01:21:34.523Z,48.95
2019-06-10T01:24:05.082Z,48.04
2019-06-10T01:26:35.628Z,49.05
2019-06-10T01:29:06.270Z,48.47
2019-06-10T01:31:38.461Z,48.68
2019-06-10T01:34:10.034Z,49.42
2019-06-10T01:36:41.266Z,50.01
2019-06-10T01:39:13.551Z,50.31
2019-06-10T01:41:44.125Z,49.85
2019-06-10T01:44:16.471Z,50.27
2019-06-10T01:46:46.877Z,49.71
2019-06-10T01:49:18.192Z,50.12
2019-06-10T01:51:51.577Z,49.88
2019-06-10T01:54:22.581Z,49.82
2019-06-10T01:56:53.339Z,49.63
2019-06-10T01:59:25.092Z,50.10
2019-06-10T02:02:05.726Z,50.16
2019-06-10T02:04:36.493Z,50.31
2019-06-10T02:07:09.202Z,50.31
2019-06-10T02:09:41.099Z,50.24
2019-06-10T02:12:12.811Z,49.79
2019-06-10T02:14:44.106Z,50.37
2019-06-10T02:17:17.610Z,50.17
2019-06-10T02:19:50.908Z,50.33
2019-06-10T02:22:24.221Z,50.07
2019-06-10T02:24:54.467Z,50.24
2019-06-10T02:27:25.408Z,50.13
2019-06-10T02:29:56.405Z,49.96
2019-06-10T02:32:33.043Z,50.15
2019-06-10T02:35:13.094Z,50.75
2019-06-10T02:37:37.746Z,50.31
2019-06-10T02:40:04.771Z,50.59
2019-06-10T02:42:39.173Z,50.07
2019-06-10T02:45:13.779Z,50.36
2019-06-10T02:47:44.414Z,50.50
2019-06-10T02:50:20.971Z,50.27
2019-06-10T02:52:47.747Z,50.49
2019-06-10T02:55:20.333Z,50.47
2019-06-10T02:57:53.184Z,50.45
2019-06-10T03:00:36.096Z,50.31
2019-06-10T03:02:55.291Z,50.11
2019-06-10T03:05:31.430Z,50.36
2019-06-10T03:07:58.528Z,50.61
2019-06-10T03:10:32.818Z,51.12
2019-06-10T03:13:02.428Z,50.84
2019-06-10T03:15:34.416Z,49.91
2019-06-10T03:18:04.855Z,50.50
2019-06-10T03:20:35.050Z,50.05
2019-06-10T03:23:05.860Z,50.59
2019-06-10T03:25:36.230Z,50.34
2019-06-10T03:28:06.430Z,51.03
2019-06-10T03:30:47.994Z,51.44
2019-06-10T03:33:13.510Z,51.25
2019-06-10T03:35:42.572Z,51.73
2019-06-10T03:38:12.643Z,51.51
2019-06-10T03:40:43.454Z,50.89
2019-06-10T03:43:13.801Z,51.17
2019-06-10T03:45:44.182Z,50.82
2019-06-10T03:48:14.380Z,50.97
2019-06-10T03:50:45.035Z,51.87
2019-06-10T03:53:15.413Z,51.87
2019-06-10T03:55:45.432Z,51.67
2019-06-10T03:58:17.478Z,51.95
2019-06-10T04:00:47.975Z,52.45
2019-06-10T04:03:19.351Z,52.05
2019-06-10T04:05:49.868Z,51.66
2019-06-10T04:08:22.437Z,51.84
2019-06-10T04:10:52.701Z,51.85
2019-06-10T04:13:25.412Z,52.66
2019-06-10T04:15:57.643Z,52.76
2019-06-10T04:18:29.355Z,52.60
2019-06-10T04:21:02.378Z,52.08
2019-06-10T04:23:33.528Z,52.40
2019-06-10T04:26:03.730Z,51.98
2019-06-10T04:28:34.515Z,51.71
2019-06-10T04:31:04.994Z,52.16
2019-06-10T04:33:35.229Z,52.52
2019-06-10T04:36:05.818Z,52.34
2019-06-10T04:38:36.710Z,52.64
2019-06-10T04:41:06.833Z,52.31
2019-06-10T04:43:37.645Z,52.31
2019-06-10T04:46:08.446Z,52.87
2019-06-10T04:48:39.293Z,51.81
2019-06-10T04:51:10.129Z,51.93
2019-06-10T04:53:43.262Z,51.98
2019-06-10T04:56:12.839Z,52.57
2019-06-10T04:58:43.508Z,53.14
2019-06-10T05:01:13.638Z,52.20
2019-06-10T05:03:44.659Z,52.48
2019-06-10T05:06:15.289Z,52.53
2019-06-10T05:08:46.088Z,52.37
2019-06-10T05:11:16.507Z,51.99
2019-06-10T05:13:47.053Z,52.51
2019-06-10T05:16:19.576Z,53.74
2019-06-10T05:18:52.398Z,54.01
2019-06-10T05:21:25.081Z,53.37
2019-06-10T05:23:54.897Z,52.90
2019-06-10T05:26:26.938Z,53.18
2019-06-10T05:28:57.891Z,52.81
2019-06-10T05:31:31.016Z,52.95
2019-06-10T05:34:03.033Z,53.39
2019-06-10T05:36:34.724Z,54.00
2019-06-10T05:39:07.413Z,54.13
2019-06-10T05:41:37.864Z,53.44
2019-06-10T05:44:08.365Z,53.17
2019-06-10T05:46:38.977Z,52.77
2019-06-10T05:49:09.691Z,52.77
2019-06-10T05:51:42.372Z,52.41
2019-06-10T05:54:12.910Z,51.29
2019-06-10T05:56:43.744Z,50.50
2019-06-10T05:59:14.465Z,50.18
2019-06-10T06:01:44.614Z,49.39
2019-06-10T06:04:15.605Z,49.36
2019-06-10T06:06:45.948Z,48.86
2019-06-10T06:09:16.524Z,48.92
2019-06-10T06:11:47.623Z,48.66
2019-06-10T06:14:17.946Z,49.24
2019-06-10T06:16:48.176Z,48.57
2019-06-10T06:19:18.003Z,47.99
2019-06-10T06:21:49.600Z,49.61
2019-06-10T06:24:22.040Z,50.15
2019-06-10T06:26:53.389Z,49.86
2019-06-10T06:29:24.627Z,50.95
2019-06-10T06:31:55.220Z,50.93
2019-06-10T06:34:26.861Z,51.19
2019-06-10T06:36:57.623Z,49.83
2019-06-10T06:39:29.009Z,50.81
2019-06-10T06:42:02.123Z,49.07
2019-06-10T06:44:33.660Z,47.18
2019-06-10T06:47:04.140Z,47.69
2019-06-10T06:49:36.984Z,49.37
2019-06-10T06:52:07.554Z,49.57
2019-06-10T06:54:39.362Z,48.39
2019-06-10T06:57:12.894Z,48.10
2019-06-10T06:59:43.308Z,47.97
2019-06-10T07:02:16.237Z,48.01
2019-06-10T07:04:47.709Z,48.69
2019-06-10T07:07:18.100Z,49.03
2019-06-10T07:09:52.532Z,48.26
2019-06-10T07:12:24.748Z,48.15
2019-06-10T07:14:55.226Z,48.10
2019-06-10T07:17:25.572Z,47.71
2019-06-10T07:19:57.646Z,47.83
2019-06-10T07:22:28.974Z,47.54
2019-06-10T07:25:04.133Z,47.50
2019-06-10T07:27:35.841Z,45.98
2019-06-10T07:30:11.647Z,47.00
2019-06-10T07:32:41.538Z,46.61
2019-06-10T07:35:12.996Z,46.04
2019-06-10T07:37:45.569Z,46.16
2019-06-10T07:40:16.360Z,47.46
2019-06-10T07:42:46.889Z,47.43
2019-06-10T07:45:17.114Z,47.76
2019-06-10T07:47:47.324Z,47.31
2019-06-10T07:50:18.128Z,47.16
2019-06-10T07:52:49.232Z,46.66
2019-06-10T07:55:22.074Z,46.44
2019-06-10T07:57:53.045Z,45.73
2019-06-10T08:00:23.622Z,46.31
2019-06-10T08:02:54.330Z,46.81
2019-06-10T08:05:25.033Z,45.39
2019-06-10T08:07:55.910Z,44.42
2019-06-10T08:10:26.434Z,44.63
2019-06-10T08:12:57.261Z,44.40
2019-06-10T08:15:28.051Z,43.67
2019-06-10T08:17:59.211Z,42.83
2019-06-10T08:20:47.888Z,43.34
2019-06-10T08:23:19.238Z,43.38
2019-06-10T08:25:54.571Z,44.88
2019-06-10T08:28:23.046Z,43.39
2019-06-10T08:30:54.118Z,42.96
2019-06-10T08:33:24.504Z,41.51
2019-06-10T08:36:00.251Z,42.07
2019-06-10T08:38:28.053Z,42.82
2019-06-10T08:40:58.981Z,43.76
2019-06-10T08:43:29.888Z,42.50
2019-06-10T08:46:02.594Z,42.17
2019-06-10T08:48:33.119Z,42.40
2019-06-10T08:51:05.859Z,42.78
2019-06-10T08:53:37.868Z,41.54
2019-06-10T08:56:08.461Z,42.06
2019-06-10T08:58:40.913Z,41.96
2019-06-10T09:01:13.314Z,42.14
2019-06-10T09:03:47.728Z,41.67
2019-06-10T09:06:19.722Z,42.26
2019-06-10T09:08:54.141Z,42.01
2019-06-10T09:11:24.237Z,42.36
2019-06-10T09:13:55.729Z,43.57
2019-06-10T09:16:26.715Z,41.69
2019-06-10T09:18:57.287Z,42.06
2019-06-10T09:21:28.136Z,41.22
2019-06-10T09:24:00.737Z,41.51
2019-06-10T09:26:33.714Z,40.79
2019-06-10T09:29:05.301Z,40.79
2019-06-10T09:31:36.050Z,41.30
2019-06-10T09:34:07.793Z,41.34
2019-06-10T09:36:40.965Z,40.03
2019-06-10T09:39:13.084Z,40.80
2019-06-10T09:41:54.270Z,41.44
2019-06-10T09:44:33.513Z,41.59
2019-06-10T09:47:05.920Z,41.99
2019-06-10T09:49:36.583Z,41.06
2019-06-10T09:52:08.063Z,41.35
2019-06-10T09:54:41.624Z,41.19
2019-06-10T09:57:12.643Z,41.39
2019-06-10T09:59:46.532Z,41.98
2019-06-10T10:02:17.650Z,41.51
2019-06-10T10:04:52.535Z,42.07
2019-06-10T10:07:22.611Z,41.35
2019-06-10T10:09:57.156Z,41.10
2019-06-10T10:12:26.873Z,40.43
2019-06-10T10:14:58.511Z,40.34
2019-06-10T10:17:33.220Z,40.92
2019-06-10T10:20:03.331Z,40.74
2019-06-10T10:22:34.462Z,41.79
2019-06-10T10:25:06.338Z,41.78
2019-06-10T10:27:37.489Z,41.29
2019-06-10T10:30:08.754Z,41.83
2019-06-10T10:32:44.304Z,40.64
2019-06-10T10:35:12.785Z,41.17
2019-06-10T10:37:48.493Z,41.88
2019-06-10T10:40:19.916Z,43.08
2019-06-10T10:42:59.195Z,42.69
2019-06-10T10:45:24.049Z,42.21
2019-06-10T10:47:57.446Z,41.81
2019-06-10T10:50:27.221Z,40.59
2019-06-10T10:52:57.742Z,39.86
2019-06-10T10:55:28.221Z,40.31
2019-06-10T10:57:58.766Z,40.00
2019-06-10T11:00:41.381Z,40.07
2019-06-10T11:03:13.383Z,40.13
2019-06-10T11:05:47.624Z,39.21
2019-06-10T11:08:16.422Z,39.29
2019-06-10T11:10:49.175Z,39.15
2019-06-10T11:13:22.273Z,37.82
2019-06-10T11:15:55.389Z,40.43
2019-06-10T11:18:24.822Z,40.26
2019-06-10T11:20:55.624Z,39.68
2019-06-10T11:23:26.671Z,39.07
2019-06-10T11:26:00.151Z,41.12
2019-06-10T11:28:32.193Z,40.35
2019-06-10T11:31:03.810Z,40.31
2019-06-10T11:33:34.906Z,39.33
2019-06-10T11:36:05.969Z,39.55
2019-06-10T11:38:36.919Z,39.63
2019-06-10T11:41:07.656Z,39.06
2019-06-10T11:43:38.358Z,38.46
2019-06-10T11:46:09.007Z,39.59
2019-06-10T11:48:40.356Z,38.81
2019-06-10T11:51:12.991Z,38.07
2019-06-10T11:53:43.950Z,38.07
2019-06-10T11:56:16.665Z,39.09
2019-06-10T11:58:48.006Z,40.41
2019-06-10T12:01:18.267Z,40.83
2019-06-10T12:03:48.469Z,41.17
2019-06-10T12:06:19.062Z,41.58
2019-06-10T12:08:53.580Z,41.52
2019-06-10T12:11:23.964Z,42.12
2019-06-10T12:14:01.863Z,40.46
2019-06-10T12:17:15.614Z,40.17
2019-06-10T12:19:00.712Z,39.29
2019-06-10T12:21:33.066Z,39.33
2019-06-10T12:24:03.846Z,39.41
2019-06-10T12:26:34.848Z,40.13
2019-06-10T12:29:06.033Z,40.45
2019-06-10T12:31:36.383Z,41.49
2019-06-10T12:34:06.784Z,41.27
2019-06-10T12:36:37.274Z,40.28
2019-06-10T12:39:10.812Z,41.57
2019-06-10T12:41:43.093Z,41.67
2019-06-10T12:44:13.778Z,41.83
2019-06-10T12:46:44.713Z,41.84
2019-06-10T12:49:18.307Z,42.33
2019-06-10T12:51:47.114Z,43.43
2019-06-10T12:54:18.042Z,43.12
2019-06-10T12:56:49.400Z,43.60
2019-06-10T12:59:19.181Z,41.90
2019-06-10T13:01:49.842Z,41.46
2019-06-10T13:04:20.980Z,40.10
2019-06-10T13:06:52.558Z,40.24
2019-06-10T13:09:24.572Z,39.50
2019-06-10T13:11:55.629Z,39.15
2019-06-10T13:14:26.099Z,39.43
2019-06-10T13:16:57.959Z,39.79
2019-06-10T13:19:33.640Z,39.75
2019-06-10T13:22:05.957Z,38.63
2019-06-10T13:24:36.689Z,37.73
2019-06-10T13:27:08.333Z,38.64
2019-06-10T13:29:39.383Z,38.18
2019-06-10T13:32:09.817Z,37.74
2019-06-10T13:34:42.451Z,38.19
2019-06-10T13:37:16.213Z,39.78
2019-06-10T13:39:45.363Z,40.29
2019-06-10T13:42:15.107Z,40.83
2019-06-10T13:44:45.509Z,40.13
2019-06-10T13:47:17.550Z,41.28
2019-06-10T13:49:48.021Z,40.50
2019-06-10T13:52:18.958Z,39.21
2019-06-10T13:54:49.717Z,39.32
2019-06-10T13:57:22.876Z,40.48
2019-06-10T13:59:52.977Z,40.57
2019-06-10T14:02:24.928Z,40.53
2019-06-10T14:04:56.525Z,40.62
2019-06-10T14:07:27.242Z,39.32
2019-06-10T14:09:58.042Z,38.92
2019-06-10T14:12:28.328Z,38.77
2019-06-10T14:14:59.189Z,39.68
2019-06-10T14:17:29.917Z,39.83
2019-06-10T14:20:01.739Z,39.88
2019-06-10T14:22:32.931Z,40.40
2019-06-10T14:25:06.454Z,40.06
2019-06-10T14:27:35.772Z,40.03
2019-06-10T14:30:07.866Z,40.51
2019-06-10T14:32:42.576Z,40.40
2019-06-10T14:35:17.218Z,39.66
2019-06-10T14:37:45.792Z,38.35
2019-06-10T14:40:21.074Z,37.51
2019-06-10T14:42:48.401Z,37.72
2019-06-10T14:45:39.227Z,38.88
2019-06-10T14:48:10.826Z,40.30
2019-06-10T14:50:43.495Z,39.97
2019-06-10T14:53:15.646Z,41.70
2019-06-10T14:55:47.702Z,42.39
2019-06-10T14:58:19.407Z,42.58
2019-06-10T15:00:53.713Z,41.94
2019-06-10T15:03:22.960Z,41.24
2019-06-10T15:05:54.348Z,42.06
2019-06-10T15:08:25.302Z,41.35
2019-06-10T15:10:55.982Z,41.76
2019-06-10T15:13:26.397Z,40.69
2019-06-10T15:15:57.550Z,40.01
2019-06-10T15:18:28.252Z,40.76
2019-06-10T15:20:58.997Z,41.42
2019-06-10T15:23:29.507Z,40.81
2019-06-10T15:26:02.561Z,42.62
2019-06-10T15:28:32.909Z,42.18
2019-06-10T15:31:03.301Z,41.42
2019-06-10T15:33:34.088Z,42.33
2019-06-10T15:36:09.324Z,41.71
2019-06-10T15:38:39.913Z,42.07
2019-06-10T15:41:15.635Z,42.07
2019-06-10T15:43:43.107Z,41.33
2019-06-10T15:46:15.864Z,41.65
2019-06-10T15:48:46.652Z,41.63
2019-06-10T15:51:19.859Z,42.08
2019-06-10T15:53:49.489Z,42.29
2019-06-10T15:56:31.309Z,42.62
2019-06-10T15:58:55.308Z,42.70
2019-06-10T16:01:27.443Z,42.38
2019-06-10T16:03:58.026Z,41.90
2019-06-10T16:06:29.382Z,41.93
2019-06-10T16:08:59.898Z,42.21
2019-06-10T16:11:33.087Z,41.85
2019-06-10T16:14:04.434Z,42.15
2019-06-10T16:16:36.140Z,42.70
2019-06-10T16:19:06.728Z,41.76
2019-06-10T16:21:39.690Z,42.08
2019-06-10T16:24:15.513Z,42.71
2019-06-10T16:26:47.068Z,42.26
2019-06-10T16:29:19.058Z,41.31
2019-06-10T16:31:52.757Z,41.79
2019-06-10T16:34:27.366Z,41.67
2019-06-10T16:36:56.905Z,42.09
2019-06-10T16:39:28.713Z,42.74
2019-06-10T16:41:59.773Z,42.63
2019-06-10T16:44:32.800Z,42.73
2019-06-10T16:47:03.627Z,42.53
2019-06-10T16:49:34.265Z,42.84
2019-06-10T16:52:04.998Z,43.36
2019-06-10T16:54:36.028Z,44.09
2019-06-10T16:57:06.673Z,44.33
2019-06-10T16:59:37.405Z,43.69
2019-06-10T17:02:07.828Z,43.61
2019-06-10T17:04:38.446Z,44.21
2019-06-10T17:07:08.341Z,43.66
2019-06-10T17:09:39.314Z,44.34
2019-06-10T17:12:09.627Z,44.61
2019-06-10T17:14:42.788Z,44.84
2019-06-10T17:17:13.624Z,44.92
2019-06-10T17:19:44.819Z,44.99
2019-06-10T17:22:15.747Z,45.12
2019-06-10T17:24:46.789Z,44.30
2019-06-10T17:27:17.591Z,44.28
2019-06-10T17:29:48.752Z,44.62
2019-06-10T17:32:19.768Z,44.37
2019-06-10T17:34:52.598Z,44.82
2019-06-10T17:37:24.400Z,44.86
2019-06-10T17:39:55.323Z,44.38
2019-06-10T17:42:30.910Z,44.79
2019-06-10T17:44:58.098Z,44.54
2019-06-10T17:50:16.384Z,44.52
2019-06-10T17:52:47.233Z,43.91
2019-06-10T17:55:17.628Z,43.55
2019-06-10T17:57:48.021Z,43.93
2019-06-10T18:00:19.548Z,43.80
2019-06-10T18:02:50.142Z,44.00
2019-06-10T18:05:23.743Z,43.92
2019-06-10T18:07:54.636Z,44.75
2019-06-10T18:10:25.583Z,44.67
2019-06-10T18:12:56.015Z,44.46
2019-06-10T18:15:26.287Z,44.85
2019-06-10T18:17:56.908Z,45.08
2019-06-10T18:20:28.868Z,44.85
2019-06-10T18:22:59.495Z,45.29
2019-06-10T18:25:30.871Z,45.04
2019-06-10T18:28:02.878Z,45.06
2019-06-10T18:30:37.321Z,45.51
2019-06-10T18:33:07.474Z,45.98
2019-06-10T18:35:37.960Z,45.80
2019-06-10T18:38:08.657Z,46.78
2019-06-10T18:40:39.869Z,46.49
2019-06-10T18:43:12.157Z,45.79
2019-06-10T18:45:44.060Z,46.00
2019-06-10T18:48:15.111Z,46.41
2019-06-10T18:50:45.682Z,46.71
2019-06-10T18:53:16.769Z,46.96
2019-06-10T18:55:47.343Z,47.53
2019-06-10T18:58:18.223Z,48.43
2019-06-10T19:01:00.844Z,49.09
2019-06-10T19:03:23.270Z,49.54
2019-06-10T19:05:53.801Z,49.79
2019-06-10T19:08:23.647Z,50.73
2019-06-10T19:10:53.887Z,50.47
2019-06-10T19:13:24.517Z,50.26
2019-06-10T19:15:55.177Z,50.77
2019-06-10T19:18:25.762Z,51.52
2019-06-10T19:20:56.842Z,51.32
2019-06-10T19:23:27.470Z,51.58
2019-06-10T19:25:58.500Z,51.24
2019-06-10T19:28:30.536Z,52.38
2019-06-10T19:31:02.707Z,53.05
2019-06-10T19:33:35.893Z,52.88
2019-06-10T19:36:09.609Z,53.13
2019-06-10T19:38:42.891Z,53.18
2019-06-10T19:41:13.041Z,52.94
2019-06-10T19:43:45.464Z,53.25
2019-06-10T19:46:17.285Z,52.76
2019-06-10T19:48:57.188Z,52.69
2019-06-10T19:51:20.069Z,53.53
2019-06-10T19:53:52.749Z,53.52
2019-06-10T19:56:26.276Z,53.98
2019-06-10T19:58:55.081Z,54.09
2019-06-10T20:01:25.631Z,56.40
2019-06-10T20:03:56.512Z,56.40
2019-06-10T20:06:26.356Z,56.21
2019-06-10T20:08:57.118Z,56.10
2019-06-10T20:11:27.525Z,55.82
2019-06-10T20:13:58.457Z,55.00
2019-06-10T20:16:29.523Z,54.74
2019-06-10T20:19:02.848Z,54.44
2019-06-10T20:21:33.071Z,54.54
2019-06-10T20:24:03.670Z,54.95
2019-06-10T20:26:34.289Z,55.37
2019-06-10T20:29:05.030Z,54.90
2019-06-10T20:31:35.814Z,55.03
2019-06-10T20:34:06.400Z,54.74
2019-06-10T20:36:37.403Z,54.39
2019-06-10T20:39:09.384Z,55.15
2019-06-10T20:41:44.300Z,54.92
2019-06-10T20:44:13.182Z,54.63
2019-06-10T20:46:46.175Z,55.07
2019-06-10T20:49:17.082Z,55.09
2019-06-10T20:52:01.357Z,54.88
2019-06-10T20:54:20.390Z,55.48
2019-06-10T20:56:53.304Z,56.58
2019-06-10T20:59:26.223Z,57.54
2019-06-10T21:02:07.017Z,57.18
2019-06-10T21:04:39.013Z,57.18
2019-06-10T21:07:19.952Z,58.63
2019-06-10T21:10:12.900Z,58.96
2019-06-10T21:12:44.912Z,58.70
2019-06-10T21:15:37.153Z,59.11
2019-06-10T21:18:13.564Z,59.99
2019-06-10T21:20:56.428Z,60.17
2019-06-10T21:23:29.530Z,60.51
2019-06-10T21:26:02.841Z,60.96
2019-06-10T21:28:36.618Z,60.43
2019-06-10T21:31:07.255Z,60.37
2019-06-10T21:33:37.977Z,61.17
2019-06-10T21:36:08.729Z,61.23
2019-06-10T21:38:39.590Z,61.30
2019-06-10T21:41:12.349Z,61.32
2019-06-10T21:43:49.423Z,60.48
2019-06-10T21:46:14.984Z,59.80
2019-06-10T21:48:47.400Z,61.10
2019-06-10T21:51:18.768Z,60.47
2019-06-10T21:53:51.292Z,60.89
2019-06-10T21:56:22.935Z,61.14
2019-06-10T21:58:55.581Z,61.28
2019-06-10T22:01:26.660Z,61.82
2019-06-10T22:04:00.733Z,62.76
2019-06-10T22:06:29.442Z,62.21
2019-06-10T22:09:00.329Z,62.42
2019-06-10T22:11:30.863Z,62.49
2019-06-10T22:14:02.795Z,62.00
2019-06-10T22:16:33.676Z,61.99
2019-06-10T22:19:04.130Z,62.19
2019-06-10T22:21:34.489Z,62.14
2019-06-10T22:24:05.275Z,61.86
2019-06-10T22:26:36.662Z,61.76
2019-06-10T22:29:07.435Z,62.14
2019-06-10T22:31:38.563Z,62.59
2019-06-10T22:34:08.942Z,62.91
2019-06-10T22:36:42.229Z,62.39
2019-06-10T22:39:12.592Z,61.76
2019-06-10T22:41:43.325Z,61.83
2019-06-10T22:44:13.448Z,61.46
2019-06-10T22:46:44.120Z,62.48
2019-06-10T22:49:15.319Z,62.64
2019-06-10T22:51:48.016Z,62.50
2019-06-10T22:54:20.088Z,63.06
2019-06-10T22:56:51.955Z,63.04
2019-06-10T22:59:22.990Z,63.13
2019-06-10T23:01:54.926Z,63.19
2019-06-10T23:04:25.410Z,62.99
2019-06-10T23:06:57.681Z,62.16
2019-06-10T23:09:29.588Z,63.27
2019-06-10T23:12:00.004Z,63.99
2019-06-10T23:14:30.408Z,64.27
2019-06-10T23:17:03.014Z,64.51
2019-06-10T23:19:34.626Z,64.28
2019-06-10T23:22:05.203Z,64.87
2019-06-10T23:24:35.822Z,65.53
2019-06-10T23:27:06.495Z,65.40
2019-06-10T23:29:36.875Z,65.03
2019-06-10T23:32:07.447Z,65.59
2019-06-10T23:34:38.081Z,65.43
2019-06-10T23:37:08.478Z,65.94
2019-06-10T23:39:42.441Z,65.39
2019-06-10T23:42:12.450Z,65.49
2019-06-10T23:44:43.511Z,65.98
2019-06-10T23:47:14.126Z,65.73
2019-06-10T23:49:45.229Z,65.59
2019-06-10T23:52:16.484Z,65.13
2019-06-10T23:57:16.039Z,64.84
2019-06-10T23:59:47.095Z,64.68
